createdAt,value
2022-08-17T00:02:25.865Z,20.30
2022-08-17T00:05:30.599Z,20.30
2022-08-17T00:08:41.426Z,20.20
2022-08-17T00:11:44.030Z,20.20
2022-08-17T00:15:10.415Z,20.30
2022-08-17T00:19:01.587Z,20.30
2022-08-17T00:22:29.444Z,20.30
2022-08-17T00:24:58.473Z,20.30
2022-08-17T00:28:00.524Z,20.40
2022-08-17T00:31:02.636Z,20.40
2022-08-17T00:34:05.067Z,20.50
2022-08-17T00:37:07.214Z,20.50
2022-08-17T00:40:11.125Z,20.50
2022-08-17T00:43:14.578Z,20.40
2022-08-17T00:46:24.277Z,20.40
2022-08-17T00:49:26.448Z,20.40
2022-08-17T00:52:33.956Z,20.40
2022-08-17T00:55:35.989Z,20.40
2022-08-17T00:58:38.557Z,20.50
2022-08-17T01:01:41.003Z,20.40
2022-08-17T01:04:44.674Z,20.30
2022-08-17T01:07:47.300Z,20.40
2022-08-17T01:10:58.882Z,20.30
2022-08-17T01:14:03.978Z,20.40
2022-08-17T01:17:06.285Z,20.40
2022-08-17T01:20:08.969Z,20.40
2022-08-17T01:23:11.122Z,20.30
2022-08-17T01:26:20.212Z,20.30
2022-08-17T01:29:24.496Z,20.30
2022-08-17T01:32:26.779Z,20.30
2022-08-17T01:35:28.670Z,20.20
2022-08-17T01:38:32.023Z,20.20
2022-08-17T01:41:35.769Z,20.20
2022-08-17T01:44:37.726Z,20.10
2022-08-17T01:47:41.888Z,20.10
2022-08-17T01:50:44.689Z,20.10
2022-08-17T01:53:50.800Z,20.00
2022-08-17T01:56:53.892Z,20.00
2022-08-17T01:59:55.855Z,20.10
2022-08-17T02:02:58.478Z,20.10
2022-08-17T02:06:00.792Z,20.10
2022-08-17T02:09:04.805Z,20.10
2022-08-17T02:12:37.939Z,20.10
2022-08-17T02:15:29.345Z,20.00
2022-08-17T02:18:32.383Z,20.00
2022-08-17T02:21:34.811Z,19.90
2022-08-17T02:25:00.688Z,19.90
2022-08-17T02:27:59.863Z,19.90
2022-08-17T02:31:08.564Z,19.90
2022-08-17T02:34:10.536Z,19.80
2022-08-17T02:37:12.742Z,19.80
2022-08-17T02:40:15.383Z,19.70
2022-08-17T02:43:19.188Z,19.70
2022-08-17T02:46:21.200Z,19.70
2022-08-17T02:49:23.190Z,19.70
2022-08-17T02:52:43.318Z,19.60
2022-08-17T02:55:46.168Z,19.60
2022-08-17T02:58:48.335Z,19.60
2022-08-17T03:01:50.634Z,19.60
2022-08-17T03:04:52.974Z,19.60
2022-08-17T03:07:55.028Z,19.60
2022-08-17T03:10:57.247Z,19.60
2022-08-17T03:13:59.382Z,19.60
2022-08-17T03:17:01.453Z,19.60
2022-08-17T03:20:06.119Z,19.50
2022-08-17T03:23:08.696Z,19.60
2022-08-17T03:26:12.350Z,19.50
2022-08-17T03:29:19.421Z,19.50
2022-08-17T03:32:21.441Z,19.50
2022-08-17T03:35:25.871Z,19.50
2022-08-17T03:38:27.941Z,19.50
2022-08-17T03:41:29.886Z,19.50
2022-08-17T03:44:31.932Z,19.50
2022-08-17T03:47:52.720Z,19.50
2022-08-17T03:51:14.926Z,19.50
2022-08-17T03:54:37.567Z,19.50
2022-08-17T03:57:40.198Z,19.50
2022-08-17T04:00:45.400Z,19.50
2022-08-17T04:03:47.322Z,19.50
2022-08-17T04:06:50.647Z,19.60
2022-08-17T04:09:53.548Z,19.50
2022-08-17T04:12:59.165Z,19.60
2022-08-17T04:16:06.007Z,19.50
2022-08-17T04:19:10.830Z,19.50
2022-08-17T04:22:30.647Z,19.50
2022-08-17T04:25:36.470Z,19.50
2022-08-17T04:28:38.683Z,19.50
2022-08-17T04:31:40.651Z,19.40
2022-08-17T04:34:43.646Z,19.40
2022-08-17T04:37:45.782Z,19.40
2022-08-17T04:41:06.920Z,19.40
2022-08-17T04:44:09.141Z,19.30
2022-08-17T04:47:12.059Z,19.30
2022-08-17T04:50:15.534Z,19.30
2022-08-17T04:53:18.371Z,19.30
2022-08-17T04:56:20.418Z,19.30
2022-08-17T04:59:22.544Z,19.30
2022-08-17T05:02:24.517Z,19.30
2022-08-17T05:05:28.883Z,19.30
2022-08-17T05:08:33.276Z,19.30
2022-08-17T05:11:37.034Z,19.30
2022-08-17T05:14:39.408Z,19.30
2022-08-17T05:17:41.389Z,19.30
2022-08-17T05:20:45.351Z,19.30
2022-08-17T05:23:54.713Z,19.20
2022-08-17T05:27:01.368Z,19.20
2022-08-17T05:30:07.268Z,19.20
2022-08-17T05:33:12.130Z,19.10
2022-08-17T05:36:42.632Z,19.10
2022-08-17T05:39:37.269Z,19.10
2022-08-17T05:42:39.336Z,19.10
2022-08-17T05:45:55.932Z,19.10
2022-08-17T05:49:01.676Z,19.10
2022-08-17T05:52:08.290Z,19.10
2022-08-17T05:55:17.249Z,19.10
2022-08-17T05:58:22.670Z,19.10
2022-08-17T06:01:50.864Z,19.10
2022-08-17T06:04:52.869Z,19.20
2022-08-17T06:08:06.731Z,19.20
2022-08-17T06:11:23.951Z,19.20
2022-08-17T06:14:42.515Z,19.30
2022-08-17T06:17:46.352Z,19.40
2022-08-17T06:20:51.132Z,19.40
2022-08-17T06:24:13.555Z,19.50
2022-08-17T06:27:18.672Z,19.80
2022-08-17T06:30:22.427Z,20.30
2022-08-17T06:33:31.700Z,20.60
2022-08-17T06:36:43.208Z,20.80
2022-08-17T06:40:04.610Z,21.00
2022-08-17T06:43:13.214Z,21.30
2022-08-17T06:46:21.428Z,21.80
2022-08-17T06:49:27.095Z,22.10
2022-08-17T06:52:45.221Z,22.70
2022-08-17T06:56:15.142Z,23.20
2022-08-17T06:59:19.660Z,23.30
2022-08-17T07:03:02.089Z,23.80
2022-08-17T07:06:01.114Z,24.10
2022-08-17T07:09:06.387Z,24.20
2022-08-17T07:12:11.112Z,24.30
2022-08-17T07:15:19.140Z,24.40
2022-08-17T07:18:23.698Z,24.20
2022-08-17T07:21:30.819Z,24.10
2022-08-17T07:24:48.874Z,24.30
2022-08-17T07:27:53.017Z,24.40
2022-08-17T07:30:54.961Z,25.10
2022-08-17T07:34:02.610Z,25.50
2022-08-17T07:37:05.428Z,26.00
2022-08-17T07:40:18.657Z,26.10
2022-08-17T07:43:23.322Z,26.10
2022-08-17T07:47:05.715Z,26.10
2022-08-17T07:50:26.334Z,26.20
2022-08-17T07:53:29.360Z,26.20
2022-08-17T07:56:37.935Z,26.40
2022-08-17T07:59:44.033Z,26.40
2022-08-17T08:02:58.689Z,26.50
2022-08-17T08:06:02.446Z,27.00
2022-08-17T08:09:04.465Z,27.80
2022-08-17T08:12:21.884Z,28.70
2022-08-17T08:15:33.390Z,28.60
2022-08-17T08:18:54.605Z,29.00
2022-08-17T08:21:59.198Z,29.60
2022-08-17T08:25:07.535Z,29.70
2022-08-17T08:28:20.009Z,30.70
2022-08-17T08:31:43.518Z,30.60
2022-08-17T08:35:09.092Z,30.80
2022-08-17T08:38:18.402Z,30.80
2022-08-17T08:41:30.620Z,30.70
2022-08-17T08:45:00.923Z,30.70
2022-08-17T08:48:46.043Z,30.30
2022-08-17T08:51:47.488Z,30.80
2022-08-17T08:55:00.088Z,30.80
2022-08-17T08:58:08.842Z,30.70
2022-08-17T09:01:44.209Z,31.00
2022-08-17T09:05:12.809Z,31.90
2022-08-17T09:08:15.367Z,32.40
2022-08-17T09:11:22.694Z,32.80
2022-08-17T09:14:29.447Z,33.20
2022-08-17T09:17:38.387Z,33.20
2022-08-17T09:20:49.583Z,33.40
2022-08-17T09:24:00.141Z,34.10
2022-08-17T09:27:04.565Z,33.40
2022-08-17T09:30:10.216Z,34.00
2022-08-17T09:33:14.700Z,33.00
2022-08-17T09:36:23.274Z,32.70
2022-08-17T09:39:45.558Z,32.60
2022-08-17T09:42:49.961Z,32.90
2022-08-17T09:45:54.383Z,33.10
2022-08-17T09:48:59.298Z,32.80
2022-08-17T09:52:03.856Z,32.30
2022-08-17T09:55:06.311Z,32.00
2022-08-17T09:58:09.727Z,32.60
2022-08-17T10:01:21.308Z,33.20
2022-08-17T10:04:29.321Z,34.00
2022-08-17T10:07:52.427Z,34.20
2022-08-17T10:10:59.178Z,34.40
2022-08-17T10:14:02.146Z,33.60
2022-08-17T10:17:35.766Z,33.30
2022-08-17T10:20:46.850Z,33.50
2022-08-17T10:24:11.366Z,33.70
2022-08-17T10:27:16.312Z,33.70
2022-08-17T10:30:20.211Z,33.50
2022-08-17T10:33:24.026Z,32.90
2022-08-17T10:36:38.089Z,32.40
2022-08-17T10:39:51.892Z,32.00
2022-08-17T10:42:56.891Z,32.10
2022-08-17T10:46:30.890Z,32.50
2022-08-17T10:49:45.823Z,33.30
2022-08-17T10:52:48.763Z,33.80
2022-08-17T10:56:09.261Z,34.50
2022-08-17T10:59:32.789Z,34.30
2022-08-17T11:02:46.222Z,33.80
2022-08-17T11:06:06.967Z,33.60
2022-08-17T11:09:26.837Z,34.00
2022-08-17T11:12:37.690Z,34.00
2022-08-17T11:15:42.349Z,33.70
2022-08-17T11:18:50.960Z,34.00
2022-08-17T11:22:09.658Z,33.80
2022-08-17T11:25:19.290Z,34.30
2022-08-17T11:28:25.913Z,34.10
2022-08-17T11:31:37.920Z,34.00
2022-08-17T11:34:43.600Z,33.50
2022-08-17T11:38:04.245Z,33.10
2022-08-17T11:41:27.663Z,32.30
2022-08-17T11:44:38.877Z,31.80
2022-08-17T11:48:27.091Z,30.90
2022-08-17T11:51:46.543Z,30.30
2022-08-17T11:54:48.968Z,29.70
2022-08-17T11:57:57.795Z,29.00
2022-08-17T12:01:01.728Z,28.60
2022-08-17T12:04:27.932Z,28.40
2022-08-17T12:07:32.595Z,27.90
2022-08-17T12:10:36.811Z,27.60
2022-08-17T12:13:45.059Z,27.30
2022-08-17T12:16:57.658Z,27.10
2022-08-17T12:20:15.221Z,27.00
2022-08-17T12:23:47.885Z,27.10
2022-08-17T12:26:56.773Z,26.90
2022-08-17T12:30:00.246Z,27.00
2022-08-17T12:33:02.713Z,27.00
2022-08-17T12:36:06.569Z,27.00
2022-08-17T12:39:14.369Z,27.10
2022-08-17T12:42:23.198Z,27.10
2022-08-17T12:45:27.589Z,27.00
2022-08-17T12:48:32.069Z,26.90
2022-08-17T12:51:34.200Z,26.90
2022-08-17T12:54:55.038Z,26.70
2022-08-17T12:58:01.777Z,26.60
2022-08-17T13:01:11.143Z,26.30
2022-08-17T13:04:14.384Z,26.40
2022-08-17T13:07:27.062Z,26.50
2022-08-17T13:10:33.385Z,26.50
2022-08-17T13:13:37.403Z,26.40
2022-08-17T13:16:40.269Z,26.20
2022-08-17T13:19:48.423Z,26.20
2022-08-17T13:22:55.811Z,26.00
2022-08-17T13:26:05.118Z,25.90
2022-08-17T13:29:16.270Z,26.10
2022-08-17T13:32:33.468Z,26.30
2022-08-17T13:35:41.142Z,26.40
2022-08-17T13:38:45.857Z,26.50
2022-08-17T13:41:48.773Z,26.60
2022-08-17T13:44:50.843Z,26.40
2022-08-17T13:48:05.049Z,26.30
2022-08-17T13:51:19.923Z,26.20
2022-08-17T13:54:28.002Z,26.00
2022-08-17T13:57:30.091Z,26.00
2022-08-17T14:00:35.556Z,26.00
2022-08-17T14:03:37.742Z,26.20
2022-08-17T14:06:51.918Z,26.20
2022-08-17T14:10:01.726Z,26.20
2022-08-17T14:13:04.130Z,26.10
2022-08-17T14:16:07.774Z,26.10
2022-08-17T14:19:12.872Z,26.20
2022-08-17T14:22:26.154Z,26.20
2022-08-17T14:25:29.532Z,26.20
2022-08-17T14:28:33.037Z,26.20
2022-08-17T14:31:39.149Z,26.20
2022-08-17T14:34:41.379Z,26.10
2022-08-17T14:37:45.838Z,26.00
2022-08-17T14:40:48.167Z,26.20
2022-08-17T14:43:50.879Z,26.30
2022-08-17T14:46:53.007Z,26.10
2022-08-17T14:49:54.962Z,26.00
2022-08-17T14:52:58.024Z,26.00
2022-08-17T14:56:01.838Z,26.00
2022-08-17T14:59:03.791Z,25.90
2022-08-17T15:02:06.302Z,25.90
2022-08-17T15:05:08.614Z,25.90
2022-08-17T15:08:10.707Z,25.80
2022-08-17T15:11:14.791Z,25.70
2022-08-17T15:14:16.875Z,25.80
2022-08-17T15:17:18.816Z,25.80
2022-08-17T15:20:23.359Z,25.90
2022-08-17T15:23:26.496Z,25.50
2022-08-17T15:26:28.553Z,25.60
2022-08-17T15:29:30.827Z,25.50
2022-08-17T15:32:38.250Z,25.30
2022-08-17T15:35:41.298Z,25.40
2022-08-17T15:38:44.549Z,25.50
2022-08-17T15:41:47.412Z,25.60
2022-08-17T15:45:04.740Z,25.70
2022-08-17T15:48:07.099Z,25.70
2022-08-17T15:51:09.180Z,25.60
2022-08-17T15:54:18.952Z,25.60
2022-08-17T15:57:25.872Z,25.60
2022-08-17T16:00:29.560Z,25.60
2022-08-17T16:04:01.254Z,25.50
2022-08-17T16:06:53.948Z,25.40
2022-08-17T16:09:56.058Z,25.30
2022-08-17T16:12:58.824Z,25.10
2022-08-17T16:16:01.438Z,25.00
2022-08-17T16:19:04.047Z,25.00
2022-08-17T16:22:07.129Z,24.80
2022-08-17T16:25:11.559Z,24.90
2022-08-17T16:28:14.710Z,25.00
2022-08-17T16:31:17.291Z,25.00
2022-08-17T16:34:19.878Z,24.80
2022-08-17T16:37:22.270Z,24.80
2022-08-17T16:40:26.282Z,24.70
2022-08-17T16:43:29.401Z,24.60
2022-08-17T16:46:31.732Z,24.60
2022-08-17T16:49:36.799Z,24.60
2022-08-17T16:52:40.120Z,24.50
2022-08-17T16:55:42.858Z,24.30
2022-08-17T16:58:45.655Z,24.30
2022-08-17T17:01:47.967Z,24.20
2022-08-17T17:04:52.746Z,24.10
2022-08-17T17:07:55.582Z,23.80
2022-08-17T17:10:59.912Z,23.90
2022-08-17T17:14:07.382Z,23.60
2022-08-17T17:17:28.108Z,23.40
2022-08-17T17:20:35.538Z,23.40
2022-08-17T17:23:48.632Z,23.40
2022-08-17T17:26:58.649Z,23.50
2022-08-17T17:30:06.799Z,23.40
2022-08-17T17:33:11.871Z,23.40
2022-08-17T17:36:13.728Z,23.50
2022-08-17T17:39:17.948Z,23.50
2022-08-17T17:42:22.228Z,23.50
2022-08-17T17:45:26.142Z,23.40
2022-08-17T17:48:28.667Z,23.30
2022-08-17T17:52:06.566Z,23.20
2022-08-17T17:55:25.082Z,23.10
2022-08-17T17:58:26.982Z,23.10
2022-08-17T18:01:47.919Z,23.20
2022-08-17T18:04:55.466Z,23.10
2022-08-17T18:08:11.422Z,23.10
2022-08-17T18:11:24.207Z,22.90
2022-08-17T18:14:45.319Z,22.80
2022-08-17T18:18:01.596Z,22.60
2022-08-17T18:21:06.978Z,22.50
2022-08-17T18:24:10.647Z,22.50
2022-08-17T18:27:31.539Z,22.50
2022-08-17T18:30:33.516Z,22.40
2022-08-17T18:33:36.462Z,22.30
2022-08-17T18:36:39.861Z,22.20
2022-08-17T18:39:43.053Z,22.00
2022-08-17T18:43:06.576Z,22.00
2022-08-17T18:46:41.221Z,21.90
2022-08-17T18:49:44.636Z,21.80
2022-08-17T18:52:49.462Z,21.70
2022-08-17T18:55:51.435Z,21.70
2022-08-17T18:59:04.134Z,21.60
2022-08-17T19:02:19.988Z,21.60
2022-08-17T19:05:41.146Z,21.50
2022-08-17T19:08:44.457Z,21.30
2022-08-17T19:11:46.537Z,21.30
2022-08-17T19:14:48.560Z,21.30
2022-08-17T19:18:04.886Z,21.20
2022-08-17T19:21:10.080Z,21.10
2022-08-17T19:24:19.816Z,21.10
2022-08-17T19:27:25.557Z,20.90
2022-08-17T19:30:37.212Z,20.90
2022-08-17T19:33:47.943Z,20.80
2022-08-17T19:36:57.061Z,20.70
2022-08-17T19:40:02.219Z,20.60
2022-08-17T19:43:05.544Z,20.60
2022-08-17T19:46:27.606Z,20.50
2022-08-17T19:49:46.769Z,20.40
2022-08-17T19:52:55.331Z,20.40
2022-08-17T19:56:06.204Z,20.30
2022-08-17T19:59:21.165Z,20.30
2022-08-17T20:02:41.930Z,20.30
2022-08-17T20:06:11.603Z,20.10
2022-08-17T20:09:18.444Z,20.20
2022-08-17T20:12:23.546Z,20.10
2022-08-17T20:15:29.620Z,20.10
2022-08-17T20:18:34.615Z,20.00
2022-08-17T20:21:37.571Z,19.90
2022-08-17T20:24:48.791Z,19.90
2022-08-17T20:28:06.302Z,19.90
2022-08-17T20:31:30.754Z,19.90
2022-08-17T20:34:38.008Z,19.80
2022-08-17T20:37:44.321Z,19.80
2022-08-17T20:40:57.484Z,19.80
2022-08-17T20:44:04.820Z,19.80
2022-08-17T20:47:33.189Z,19.70
2022-08-17T20:50:36.335Z,19.70
2022-08-17T20:53:47.248Z,19.70
2022-08-17T20:56:51.750Z,19.70
2022-08-17T20:59:55.277Z,19.60
2022-08-17T21:03:17.599Z,19.60
2022-08-17T21:06:21.144Z,19.70
2022-08-17T21:09:29.741Z,19.60
2022-08-17T21:12:58.069Z,19.60
2022-08-17T21:16:08.705Z,19.60
2022-08-17T21:19:31.247Z,19.60
2022-08-17T21:22:52.157Z,19.50
2022-08-17T21:26:06.198Z,19.60
2022-08-17T21:29:31.170Z,19.60
2022-08-17T21:32:35.805Z,19.50
2022-08-17T21:35:47.457Z,19.40
2022-08-17T21:38:55.680Z,19.50
2022-08-17T21:41:59.945Z,19.40
2022-08-17T21:45:09.820Z,19.40
2022-08-17T21:48:13.344Z,19.40
2022-08-17T21:51:20.832Z,19.40
2022-08-17T21:54:22.752Z,19.40
2022-08-17T21:57:28.618Z,19.40
2022-08-17T22:00:32.086Z,19.30
2022-08-17T22:03:34.285Z,19.30
2022-08-17T22:06:41.306Z,19.30
2022-08-17T22:09:44.898Z,19.30
2022-08-17T22:13:01.397Z,19.20
2022-08-17T22:16:27.887Z,19.30
2022-08-17T22:19:33.462Z,19.20
2022-08-17T22:22:57.211Z,19.20
2022-08-17T22:26:02.381Z,19.20
2022-08-17T22:29:04.441Z,19.30
2022-08-17T22:32:06.740Z,19.20
2022-08-17T22:35:30.379Z,19.20
2022-08-17T22:38:32.568Z,19.30
2022-08-17T22:41:41.396Z,19.30
2022-08-17T22:44:48.324Z,19.30
2022-08-17T22:47:53.747Z,19.20
2022-08-17T22:51:12.734Z,19.30
2022-08-17T22:54:36.399Z,19.30
2022-08-17T22:58:03.740Z,19.20
2022-08-17T23:01:23.724Z,19.20
2022-08-17T23:04:38.199Z,19.20
2022-08-17T23:07:42.491Z,19.10
2022-08-17T23:10:46.738Z,19.00
2022-08-17T23:13:48.800Z,19.10
2022-08-17T23:16:52.324Z,19.00
2022-08-17T23:19:55.880Z,19.00
2022-08-17T23:22:59.698Z,19.00
2022-08-17T23:26:01.955Z,19.00
2022-08-17T23:29:04.556Z,19.00
2022-08-17T23:32:06.634Z,19.00
2022-08-17T23:35:09.436Z,18.90
2022-08-17T23:38:12.493Z,18.90
2022-08-17T23:41:16.029Z,18.90
2022-08-17T23:44:18.371Z,18.90
2022-08-17T23:47:21.208Z,18.80
2022-08-17T23:50:23.614Z,18.90
2022-08-17T23:53:26.086Z,18.80
2022-08-17T23:56:28.357Z,18.80
2022-08-17T23:59:30.411Z,18.80
